Time;durP1;ratioP1;P1;durP2;ratioP2;P2;SDS_P1;SDS_P2;PMS_P1;PMS_P2;Temp;Humidity;BMP_temperature;BMP_pressure;BME280_temperature;BME280_humidity;BME280_pressure;Samples;Min_cycle;Max_cycle;Signal;HPM_P1;HPM_P2
2023/06/14 00:02:08;;;;;;;8.20;4.72;;;;;;;20.03;100.00;97886.38;5070816;28;20180;-57
2023/06/14 00:04:35;;;;;;;5.20;4.70;;;;;;;19.83;100.00;97887.84;5070732;28;20196;-58
2023/06/14 00:07:00;;;;;;;5.32;4.93;;;;;;;19.75;100.00;97887.91;5070618;28;20634;-57
2023/06/14 00:09:26;;;;;;;5.55;5.05;;;;;;;19.65;100.00;97874.19;5070531;28;20308;-58
2023/06/14 00:11:51;;;;;;;5.93;4.78;;;;;;;19.75;100.00;97885.28;5070605;28;20785;-57
2023/06/14 00:14:16;;;;;;;6.82;4.78;;;;;;;19.75;100.00;97885.28;5070586;28;20267;-58
2023/06/14 00:16:42;;;;;;;5.07;4.60;;;;;;;19.61;100.00;97867.66;5070579;28;20245;-58
2023/06/14 00:19:10;;;;;;;6.60;5.18;;;;;;;19.54;100.00;97849.19;5070447;28;20673;-57
2023/06/14 00:21:36;;;;;;;7.60;5.25;;;;;;;19.74;100.00;97883.63;5070328;28;20281;-58
2023/06/14 00:24:02;;;;;;;6.75;5.18;;;;;;;19.61;100.00;97863.22;5070293;28;20180;-58
2023/06/14 00:26:27;;;;;;;7.50;5.95;;;;;;;19.68;100.00;97874.66;5065808;28;20253;-57
2023/06/14 00:28:56;;;;;;;6.15;5.47;;;;;;;19.66;100.00;97865.31;5070203;28;20768;-58
2023/06/14 00:31:22;;;;;;;6.35;5.00;;;;;;;19.78;100.00;97866.56;5070134;28;20293;-57
2023/06/14 00:33:48;;;;;;;9.70;5.57;;;;;;;19.77;100.00;97863.09;5070260;28;20176;-58
2023/06/14 00:36:13;;;;;;;5.53;5.03;;;;;;;19.69;100.00;97875.50;5070155;28;20211;-58
2023/06/14 00:38:39;;;;;;;8.23;5.35;;;;;;;19.54;100.00;97858.84;5049965;28;20185;-58
2023/06/14 00:41:05;;;;;;;7.07;5.43;;;;;;;19.55;100.00;97855.22;5050019;28;20208;-58
2023/06/14 00:43:31;;;;;;;6.20;5.60;;;;;;;19.37;100.00;97838.94;5050080;28;20390;-58
2023/06/14 00:45:56;;;;;;;9.82;5.57;;;;;;;19.57;100.00;97850.63;5050061;28;20644;-58
2023/06/14 00:48:22;;;;;;;8.05;5.40;;;;;;;19.39;100.00;97829.91;5049976;28;20209;-57
2023/06/14 00:50:51;;;;;;;6.78;5.15;;;;;;;19.43;100.00;97836.47;5050048;28;20235;-57
2023/06/14 00:53:20;;;;;;;6.40;5.75;;;;;;;19.38;100.00;97830.06;5049886;28;20185;-58
2023/06/14 00:55:47;;;;;;;11.73;6.07;;;;;;;19.43;100.00;97840.88;5049881;28;20566;-58
2023/06/14 00:58:13;;;;;;;5.97;5.43;;;;;;;19.38;100.00;97837.94;5026568;28;20647;-58
2023/06/14 01:00:39;;;;;;;6.50;5.90;;;;;;;19.24;100.00;97821.13;5029998;28;20217;-57
2023/06/14 01:03:04;;;;;;;6.60;6.00;;;;;;;19.31;100.00;97840.47;5030165;28;20232;-57
2023/06/14 01:05:31;;;;;;;6.05;5.45;;;;;;;19.19;100.00;97830.50;5029906;28;20182;-57
2023/06/14 01:08:21;;;;;;;7.20;5.72;;;;;;;19.12;100.00;97837.44;5029445;28;20212;-58
2023/06/14 01:10:52;;;;;;;8.70;5.60;;;;;;;19.23;100.00;97842.31;5049320;28;20181;-58
2023/06/14 01:13:29;;;;;;;6.53;5.15;;;;;;;19.28;100.00;97838.19;4990428;28;20179;-58
2023/06/14 01:15:55;;;;;;;6.03;5.47;;;;;;;19.30;100.00;97827.53;4970981;28;20194;-58
2023/06/14 01:18:23;;;;;;;7.15;5.20;;;;;;;19.30;100.00;97830.13;4971205;28;20196;-58
2023/06/14 01:20:50;;;;;;;6.53;5.93;;;;;;;19.41;100.00;97837.63;4970940;28;20199;-58
2023/06/14 01:23:23;;;;;;;6.07;5.53;;;;;;;19.38;100.00;97830.06;4970907;28;20191;-58
2023/06/14 01:25:52;;;;;;;8.32;5.60;;;;;;;19.50;100.00;97834.75;4932397;29;20214;-58
2023/06/14 01:28:19;;;;;;;6.28;5.53;;;;;;;19.61;100.00;97830.91;4937261;28;20213;-58
2023/06/14 01:30:47;;;;;;;6.53;5.35;;;;;;;19.46;100.00;97833.47;4970719;28;20215;-57
2023/06/14 01:33:15;;;;;;;6.75;5.97;;;;;;;19.28;100.00;97825.06;4970935;28;20259;-58
2023/06/14 01:35:46;;;;;;;7.53;6.10;;;;;;;19.19;100.00;97796.41;4951460;29;20716;-57
2023/06/14 01:38:14;;;;;;;6.20;5.60;;;;;;;19.25;100.00;97821.97;4951572;29;20200;-58
2023/06/14 01:40:42;;;;;;;6.88;5.82;;;;;;;19.05;100.00;97787.47;4951438;29;20227;-58
2023/06/14 01:43:09;;;;;;;11.40;5.28;;;;;;;19.08;100.00;97817.78;4952255;28;20667;-58
2023/06/14 01:45:36;;;;;;;8.07;5.15;;;;;;;19.00;100.00;97821.25;5009685;28;20244;-58
2023/06/14 01:48:02;;;;;;;7.50;5.45;;;;;;;18.88;100.00;97803.47;5028733;28;20221;-58
2023/06/14 01:50:31;;;;;;;9.23;5.63;;;;;;;18.97;100.00;97820.78;5028990;28;20186;-58
2023/06/14 01:52:57;;;;;;;6.15;5.00;;;;;;;19.04;100.00;97835.66;5029441;28;20276;-58
2023/06/14 01:55:24;;;;;;;6.50;5.90;;;;;;;18.93;100.00;97829.97;5029437;28;20622;-58
2023/06/14 01:57:50;;;;;;;5.05;4.72;;;;;;;18.88;100.00;97812.13;5029390;28;20728;-57
2023/06/14 02:00:18;;;;;;;6.90;6.25;;;;;;;19.00;100.00;97810.75;5029429;28;20269;-58
2023/06/14 02:02:43;;;;;;;6.53;5.45;;;;;;;19.03;100.00;97822.72;5035124;28;20220;-58
2023/06/14 02:05:10;;;;;;;6.80;6.10;;;;;;;19.11;100.00;97809.56;5049252;28;20193;-58
2023/06/14 02:07:36;;;;;;;7.63;5.82;;;;;;;18.94;100.00;97808.03;5049097;28;20721;-58
2023/06/14 02:10:01;;;;;;;7.13;6.43;;;;;;;18.77;100.00;97828.22;5049211;28;20178;-58
2023/06/14 02:12:27;;;;;;;9.98;5.90;;;;;;;18.81;100.00;97826.91;5058513;28;20556;-58
2023/06/14 02:14:52;;;;;;;6.90;5.72;;;;;;;18.97;100.00;97839.97;5089471;28;20681;-58
2023/06/14 02:17:17;;;;;;;6.10;5.38;;;;;;;19.06;100.00;97832.88;5091089;28;20191;-58
2023/06/14 02:19:43;;;;;;;6.53;5.75;;;;;;;19.01;100.00;97835.97;5093092;28;20625;-58
2023/06/14 02:22:09;;;;;;;9.77;5.10;;;;;;;18.65;100.00;97810.44;5095323;28;20266;-58
2023/06/14 02:24:35;;;;;;;6.10;5.57;;;;;;;18.57;100.00;97823.56;5095367;28;20179;-58
2023/06/14 02:27:02;;;;;;;9.00;5.78;;;;;;;18.48;100.00;97808.84;5094946;28;20168;-58
2023/06/14 02:29:27;;;;;;;6.93;5.82;;;;;;;18.79;100.00;97828.06;5095137;28;20287;-58
2023/06/14 02:31:52;;;;;;;6.90;5.38;;;;;;;18.82;100.00;97828.53;5095412;28;20184;-58
2023/06/14 02:34:19;;;;;;;6.50;5.57;;;;;;;18.83;100.00;97818.88;5072387;28;20196;-58
2023/06/14 02:36:45;;;;;;;5.25;4.85;;;;;;;18.88;100.00;97835.72;5072383;28;20674;-58
2023/06/14 02:39:11;;;;;;;7.45;5.55;;;;;;;18.84;100.00;97838.88;5072441;28;20194;-58
2023/06/14 02:41:37;;;;;;;5.85;5.20;;;;;;;18.78;100.00;97814.13;5072327;28;20181;-58
2023/06/14 02:44:02;;;;;;;7.70;5.80;;;;;;;18.92;100.00;97837.03;5072387;28;20224;-58
2023/06/14 02:46:28;;;;;;;7.82;5.65;;;;;;;18.66;100.00;97814.69;5072294;28;20188;-58
2023/06/14 02:48:53;;;;;;;6.18;5.68;;;;;;;18.64;100.00;97816.66;5072214;28;20238;-58
2023/06/14 02:51:18;;;;;;;5.93;5.40;;;;;;;18.71;100.00;97839.38;5072243;28;20187;-57
2023/06/14 02:53:44;;;;;;;5.80;5.30;;;;;;;18.75;100.00;97848.56;5072167;28;20180;-58
2023/06/14 02:56:11;;;;;;;8.25;5.65;;;;;;;18.57;100.00;97827.00;5072053;28;20188;-58
2023/06/14 02:58:37;;;;;;;6.60;6.00;;;;;;;18.77;100.00;97841.34;5072091;28;20663;-57
2023/06/14 03:01:05;;;;;;;6.15;5.22;;;;;;;18.77;100.00;97840.53;5072034;28;20184;-58
2023/06/14 03:03:31;;;;;;;8.05;5.60;;;;;;;18.70;100.00;97824.66;5071991;28;20241;-58
2023/06/14 03:05:57;;;;;;;6.38;5.57;;;;;;;18.93;100.00;97846.53;5071913;28;20658;-58
2023/06/14 03:08:26;;;;;;;8.27;6.80;;;;;;;18.82;100.00;97835.59;5071801;28;20635;-58
2023/06/14 03:10:53;;;;;;;8.27;5.05;;;;;;;19.08;100.00;97864.97;5075189;28;20671;-58
2023/06/14 03:13:22;;;;;;;6.10;5.60;;;;;;;19.18;100.00;97852.47;5094377;28;20210;-58
2023/06/14 03:15:50;;;;;;;6.07;5.47;;;;;;;18.95;100.00;97838.50;5094310;28;20182;-58
2023/06/14 03:18:15;;;;;;;9.07;6.18;;;;;;;18.93;100.00;97841.28;5093986;28;20172;-57
2023/06/14 03:20:42;;;;;;;9.40;6.25;;;;;;;18.92;100.00;97849.31;5094192;28;20176;-57
2023/06/14 03:23:08;;;;;;;5.82;5.32;;;;;;;18.76;100.00;97842.31;5094133;28;20328;-57
2023/06/14 03:25:35;;;;;;;7.32;5.90;;;;;;;18.93;100.00;97862.25;5094180;28;20171;-57
2023/06/14 03:28:02;;;;;;;6.97;5.80;;;;;;;18.54;100.00;97850.13;5094005;28;20200;-57
2023/06/14 03:30:28;;;;;;;7.47;6.18;;;;;;;18.54;100.00;97866.63;5093771;28;20191;-57
2023/06/14 03:32:55;;;;;;;6.63;5.97;;;;;;;18.45;100.00;97848.47;5094019;28;20540;-57
2023/06/14 03:35:21;;;;;;;9.20;6.10;;;;;;;18.55;100.00;97849.13;5093898;28;20176;-57
2023/06/14 03:37:47;;;;;;;6.10;5.60;;;;;;;18.57;100.00;97860.25;5093955;28;20186;-57
2023/06/14 03:40:13;;;;;;;6.28;5.78;;;;;;;18.69;100.00;97879.84;5093879;28;20180;-57
2023/06/14 03:42:39;;;;;;;8.75;6.40;;;;;;;18.90;100.00;97888.00;5093740;28;20213;-57
2023/06/14 03:45:06;;;;;;;9.57;8.15;;;;;;;19.08;100.00;97892.03;5093764;28;20172;-57
2023/06/14 03:47:31;;;;;;;7.45;6.70;;;;;;;19.20;100.00;97893.28;5075486;28;20554;-57
2023/06/14 03:49:57;;;;;;;7.50;6.18;;;;;;;19.30;100.00;97901.78;5070913;28;20181;-57
2023/06/14 03:52:23;;;;;;;8.98;7.35;;;;;;;19.37;100.00;97886.16;5070897;28;20284;-57
2023/06/14 03:54:49;;;;;;;8.65;6.63;;;;;;;19.36;100.00;97880.09;5070932;28;20662;-57
2023/06/14 03:57:15;;;;;;;7.38;6.68;;;;;;;19.50;100.00;97897.75;5070874;28;20180;-57
2023/06/14 03:59:41;;;;;;;8.55;7.22;;;;;;;19.54;100.00;97901.66;5071161;28;20287;-57
2023/06/14 04:02:06;;;;;;;7.80;7.00;;;;;;;19.66;100.00;97900.28;5070769;28;20263;-57
2023/06/14 04:04:32;;;;;;;10.55;9.27;;;;;;;19.70;100.00;97892.88;5070687;28;20280;-57
2023/06/14 04:07:00;;;;;;;10.25;8.07;;;;;;;19.81;100.00;97897.72;5070733;28;20279;-57
2023/06/14 04:09:26;;;;;;;9.65;8.65;;;;;;;19.96;100.00;97925.66;5070499;28;20281;-57
2023/06/14 04:11:55;;;;;;;9.38;7.97;;;;;;;20.00;100.00;97921.69;5070617;28;20185;-57
2023/06/14 04:14:21;;;;;;;9.13;7.88;;;;;;;19.94;100.00;97914.50;5070599;28;20183;-57
2023/06/14 04:16:47;;;;;;;13.05;7.95;;;;;;;19.95;100.00;97917.97;5070562;28;20185;-57
2023/06/14 04:19:13;;;;;;;9.15;8.30;;;;;;;19.93;100.00;97918.13;5070394;28;20180;-57
2023/06/14 04:21:39;;;;;;;10.85;8.45;;;;;;;20.01;100.00;97927.75;5046236;28;20327;-57
2023/06/14 04:24:05;;;;;;;12.85;8.90;;;;;;;20.05;100.00;97924.59;5050394;28;20215;-57
2023/06/14 04:26:33;;;;;;;11.70;9.07;;;;;;;20.01;100.00;97907.59;5050386;28;20185;-57
2023/06/14 04:29:01;;;;;;;10.15;9.15;;;;;;;20.04;100.00;97911.66;5050216;28;20201;-57
2023/06/14 04:31:33;;;;;;;9.63;8.70;;;;;;;20.03;100.00;97907.38;5050157;28;20282;-58
2023/06/14 04:33:59;;;;;;;9.70;8.75;;;;;;;20.27;100.00;97928.22;5050241;28;20169;-57
2023/06/14 04:36:26;;;;;;;10.02;8.48;;;;;;;20.26;100.00;97918.72;5050214;28;20232;-57
2023/06/14 04:38:54;;;;;;;12.88;9.60;;;;;;;20.21;100.00;97906.13;5050123;28;20258;-58
2023/06/14 04:41:22;;;;;;;12.50;10.13;;;;;;;20.28;100.00;97914.13;5050032;28;20193;-57
2023/06/14 04:43:53;;;;;;;13.20;10.32;;;;;;;20.44;100.00;97937.63;5049680;28;20181;-57
2023/06/14 04:46:18;;;;;;;13.50;10.88;;;;;;;20.31;100.00;97911.97;5050181;28;20177;-57
2023/06/14 04:48:45;;;;;;;14.35;12.05;;;;;;;20.43;100.00;97915.78;5049950;28;20581;-57
2023/06/14 04:51:12;;;;;;;14.80;11.93;;;;;;;20.54;100.00;97922.41;5050029;28;20225;-57
2023/06/14 04:53:38;;;;;;;19.88;12.48;;;;;;;20.70;100.00;97935.41;5088672;28;20272;-57
2023/06/14 04:56:03;;;;;;;16.77;12.45;;;;;;;20.77;100.00;97954.72;5092488;28;20207;-57
2023/06/14 04:58:29;;;;;;;13.13;10.88;;;;;;;20.71;100.00;97947.56;5092531;28;20649;-57
2023/06/14 05:00:59;;;;;;;12.68;10.20;;;;;;;20.73;100.00;97949.00;5029829;28;20229;-57
2023/06/14 05:03:24;;;;;;;11.20;9.43;;;;;;;20.68;100.00;97937.41;5029836;28;20284;-57
2023/06/14 05:05:50;;;;;;;13.32;9.27;;;;;;;20.66;100.00;97934.13;5029878;28;20391;-58
2023/06/14 05:08:16;;;;;;;12.35;8.82;;;;;;;20.65;100.00;97937.75;5029838;28;20243;-57
2023/06/14 05:10:42;;;;;;;10.25;8.45;;;;;;;20.66;100.00;97931.50;4990491;28;20284;-57
2023/06/14 05:13:07;;;;;;;10.57;8.70;;;;;;;20.90;100.00;97958.41;4990527;28;20650;-57
2023/06/14 05:15:33;;;;;;;11.35;7.93;;;;;;;20.97;100.00;97958.50;4990372;28;20194;-57
2023/06/14 05:17:58;;;;;;;11.63;9.45;;;;;;;21.05;100.00;97966.31;4990389;28;20592;-57
2023/06/14 05:20:24;;;;;;;12.88;8.82;;;;;;;21.00;100.00;97951.06;4990471;28;20187;-57
2023/06/14 05:22:51;;;;;;;10.48;8.82;;;;;;;20.91;100.00;97936.38;4990421;28;20222;-57
2023/06/14 05:25:17;;;;;;;10.27;9.18;;;;;;;21.12;100.00;97967.22;4990385;28;20190;-57
2023/06/14 05:27:43;;;;;;;11.18;9.43;;;;;;;21.20;100.00;97975.00;4990348;28;20217;-57
2023/06/14 05:30:09;;;;;;;9.80;9.00;;;;;;;21.22;100.00;97973.03;4990055;28;20312;-57
2023/06/14 05:32:34;;;;;;;12.38;9.27;;;;;;;21.17;100.00;97960.41;4990378;28;20197;-57
2023/06/14 05:35:00;;;;;;;10.73;8.77;;;;;;;21.25;100.00;97976.09;4990387;28;20202;-57
2023/06/14 05:37:25;;;;;;;11.77;9.82;;;;;;;21.32;100.00;97984.91;4994945;28;20254;-57
2023/06/14 05:39:50;;;;;;;11.68;9.77;;;;;;;21.31;100.00;97979.81;4990151;28;20227;-57
2023/06/14 05:42:16;;;;;;;11.68;9.88;;;;;;;21.24;100.00;97986.81;5019471;28;20680;-57
2023/06/14 05:44:41;;;;;;;12.68;9.25;;;;;;;21.22;100.00;97983.56;5029576;28;20194;-57
2023/06/14 05:47:07;;;;;;;10.77;9.75;;;;;;;21.18;100.00;97980.47;5029568;28;20170;-57
2023/06/14 05:49:32;;;;;;;13.35;10.57;;;;;;;21.33;100.00;97996.25;5029452;28;20222;-57
2023/06/14 05:51:57;;;;;;;10.50;9.45;;;;;;;21.04;100.00;97965.47;5029499;28;20232;-57
2023/06/14 05:54:23;;;;;;;12.85;10.52;;;;;;;21.29;100.00;97994.97;5031994;28;20695;-57
2023/06/14 05:56:48;;;;;;;12.70;9.90;;;;;;;21.39;100.00;97995.53;5033365;28;20261;-57
2023/06/14 05:59:13;;;;;;;11.07;9.27;;;;;;;21.36;100.00;97985.34;5033311;28;20200;-57
2023/06/14 06:01:40;;;;;;;10.65;9.68;;;;;;;21.56;100.00;98004.88;5033201;28;20180;-57
2023/06/14 06:04:06;;;;;;;11.45;9.80;;;;;;;21.61;100.00;97994.59;5033125;28;20198;-57
2023/06/14 06:06:32;;;;;;;11.30;8.93;;;;;;;21.62;100.00;97985.69;5033107;28;20304;-57
2023/06/14 06:08:58;;;;;;;10.50;8.07;;;;;;;21.72;100.00;97980.97;5032980;28;20201;-57
2023/06/14 06:11:23;;;;;;;9.00;8.10;;;;;;;21.92;100.00;97998.63;5078663;28;20646;-57
2023/06/14 06:13:49;;;;;;;8.75;7.90;;;;;;;21.97;100.00;97996.25;5095566;28;20171;-57
2023/06/14 06:16:15;;;;;;;10.10;7.93;;;;;;;22.08;100.00;97998.41;5095534;28;20199;-57
2023/06/14 06:18:40;;;;;;;8.85;7.20;;;;;;;22.13;100.00;97992.56;5095527;28;20702;-57
2023/06/14 06:21:06;;;;;;;6.97;6.25;;;;;;;22.22;100.00;98000.19;5095420;28;20175;-57
2023/06/14 06:23:31;;;;;;;8.57;7.22;;;;;;;22.10;100.00;97975.34;5095147;28;20198;-57
2023/06/14 06:25:57;;;;;;;9.05;7.35;;;;;;;22.23;100.00;98003.63;5095380;28;20259;-57
2023/06/14 06:28:22;;;;;;;8.02;7.32;;;;;;;22.25;100.00;98002.44;5095269;28;20275;-57
2023/06/14 06:30:48;;;;;;;9.63;8.70;;;;;;;22.26;100.00;98003.28;5095280;28;20180;-58
2023/06/14 06:33:14;;;;;;;11.23;8.15;;;;;;;22.05;100.00;97987.44;5095198;28;20612;-57
2023/06/14 06:35:40;;;;;;;9.98;7.70;;;;;;;22.22;100.00;98009.91;5095169;28;20175;-57
2023/06/14 06:38:05;;;;;;;8.60;7.80;;;;;;;22.31;100.00;98009.59;5052459;28;20192;-57
2023/06/14 06:40:31;;;;;;;9.95;8.95;;;;;;;22.42;100.00;98009.09;5052415;28;20268;-57
2023/06/14 06:42:56;;;;;;;9.85;8.85;;;;;;;22.52;100.00;98012.28;5052377;28;20189;-57
2023/06/14 06:45:23;;;;;;;10.60;9.05;;;;;;;22.65;100.00;98011.56;5052362;28;20185;-57
2023/06/14 06:47:48;;;;;;;9.35;8.05;;;;;;;22.70;100.00;98017.91;5012378;28;20213;-57
2023/06/14 06:50:14;;;;;;;8.40;7.60;;;;;;;22.76;100.00;98000.50;5012509;28;20186;-57
2023/06/14 06:52:40;;;;;;;9.98;7.97;;;;;;;22.85;100.00;98017.81;5012510;28;20291;-57
2023/06/14 06:55:06;;;;;;;9.10;8.30;;;;;;;22.80;100.00;97989.38;4992709;28;20242;-58
2023/06/14 06:57:31;;;;;;;9.40;8.07;;;;;;;22.90;100.00;98026.78;4993006;28;20685;-57
2023/06/14 06:59:57;;;;;;;9.00;8.10;;;;;;;22.81;100.00;98004.19;4973160;28;20188;-57
2023/06/14 07:02:22;;;;;;;10.57;8.15;;;;;;;;;;4973231;28;20203;-57
2023/06/14 07:04:47;;;;;;;8.95;7.70;;;;;;;22.89;100.00;98009.31;4972643;28;20192;-57
2023/06/14 07:07:13;;;;;;;10.65;8.00;;;;;;;23.04;100.00;98009.22;4953683;29;20196;-57
2023/06/14 07:09:38;;;;;;;9.55;7.47;;;;;;;23.08;100.00;98005.22;4967870;28;20219;-57
2023/06/14 07:12:04;;;;;;;7.95;7.25;;;;;;;22.86;100.00;98006.25;4972987;28;20282;-57
2023/06/14 07:14:30;;;;;;;10.45;7.40;;;;;;;23.12;100.00;98024.91;4973312;28;20183;-57
2023/06/14 07:16:55;;;;;;;8.45;7.53;;;;;;;23.24;100.00;98034.00;4934364;29;20706;-57
2023/06/14 07:19:21;;;;;;;8.80;7.55;;;;;;;23.19;100.00;97999.44;4948431;29;20188;-57
2023/06/14 07:21:46;;;;;;;9.40;8.43;;;;;;;23.44;100.00;98025.19;4972736;28;20191;-57
2023/06/14 07:24:12;;;;;;;10.60;8.13;;;;;;;23.46;100.00;98017.88;4972815;28;20253;-57
2023/06/14 07:26:37;;;;;;;8.80;7.47;;;;;;;23.57;100.00;98014.66;4986839;28;20774;-57
2023/06/14 07:29:02;;;;;;;10.35;8.45;;;;;;;23.61;100.00;98025.66;4992024;28;20649;-57
2023/06/14 07:31:28;;;;;;;10.07;7.65;;;;;;;23.57;100.00;98034.97;4992007;28;20207;-57
2023/06/14 07:33:53;;;;;;;11.00;8.95;;;;;;;23.38;100.00;98004.00;4992080;28;20300;-57
2023/06/14 07:36:19;;;;;;;18.13;9.30;;;;;;;23.60;100.00;98024.03;4994306;28;20252;-57
2023/06/14 07:38:45;;;;;;;9.32;8.30;;;;;;;23.41;100.00;98019.44;5045918;28;20196;-57
2023/06/14 07:41:10;;;;;;;12.55;8.68;;;;;;;23.40;100.00;98007.25;5051236;28;20193;-58
2023/06/14 07:43:36;;;;;;;11.77;8.20;;;;;;;23.39;100.00;98019.66;5011347;28;20196;-57
2023/06/14 07:46:02;;;;;;;9.73;8.75;;;;;;;23.41;100.00;98019.44;5011218;28;20722;-57
2023/06/14 07:48:27;;;;;;;9.50;8.68;;;;;;;23.37;100.00;98002.38;5039966;28;20201;-57
2023/06/14 07:50:53;;;;;;;8.85;8.05;;;;;;;23.48;100.00;98015.84;5051039;28;20679;-57
2023/06/14 07:53:18;;;;;;;8.70;7.85;;;;;;;23.49;100.00;98003.44;4997021;28;20202;-57
2023/06/14 07:55:43;;;;;;;9.80;8.10;;;;;;;23.46;100.00;98024.97;4991986;28;20191;-59
2023/06/14 07:58:10;;;;;;;9.85;7.13;;;;;;;23.53;100.00;98017.91;4991614;28;20210;-57
2023/06/14 08:00:36;;;;;;;8.25;7.55;;;;;;;23.51;100.00;98022.53;4991662;28;20235;-57
2023/06/14 08:03:01;;;;;;;8.93;7.82;;;;;;;23.56;100.00;98034.19;4991479;28;20265;-57
2023/06/14 08:05:28;;;;;;;10.68;7.40;;;;;;;23.57;100.00;98019.13;4991370;28;20187;-57
2023/06/14 08:07:54;;;;;;;9.48;7.85;;;;;;;23.56;100.00;98033.34;4991411;28;20234;-57
2023/06/14 08:10:20;;;;;;;8.77;7.97;;;;;;;23.40;100.00;98012.53;4991388;28;20195;-57
2023/06/14 08:12:45;;;;;;;8.77;7.97;;;;;;;23.46;100.00;98007.28;4991337;28;20201;-57
2023/06/14 08:15:11;;;;;;;10.30;8.60;;;;;;;23.64;100.00;98031.34;5005970;28;20572;-57
2023/06/14 08:17:37;;;;;;;8.45;7.57;;;;;;;23.61;100.00;98036.22;5039708;28;20710;-57
2023/06/14 08:20:05;;;;;;;9.88;7.88;;;;;;;23.65;100.00;98040.91;5050443;28;20196;-57
2023/06/14 08:22:33;;;;;;;8.80;7.50;;;;;;;23.73;100.00;98029.38;5050399;28;20185;-57
2023/06/14 08:24:59;;;;;;;8.90;8.00;;;;;;;23.89;100.00;98032.50;5082124;28;20586;-57
2023/06/14 08:27:25;;;;;;;9.82;8.32;;;;;;;23.98;100.00;98022.59;5090601;28;20232;-58
2023/06/14 08:29:50;;;;;;;9.15;7.65;;;;;;;24.23;100.00;98051.75;5090425;28;20770;-57
2023/06/14 08:32:15;;;;;;;10.63;8.60;;;;;;;24.17;100.00;98039.34;5090532;28;20629;-56
2023/06/14 08:34:41;;;;;;;8.32;7.53;;;;;;;24.21;100.00;98029.19;5090513;28;20187;-56
2023/06/14 08:37:07;;;;;;;9.15;8.13;;;;;;;24.37;100.00;98034.91;5091985;28;20248;-57
2023/06/14 08:39:33;;;;;;;8.98;7.65;;;;;;;24.52;100.00;98038.19;5092864;28;20195;-57
2023/06/14 08:42:01;;;;;;;8.98;7.90;;;;;;;24.68;100.00;98058.19;5070043;28;20184;-57
2023/06/14 08:44:26;;;;;;;10.40;9.27;;;;;;;24.68;100.00;98052.91;5070071;28;20283;-57
2023/06/14 08:46:55;;;;;;;10.00;8.43;;;;;;;24.82;100.00;98060.66;5070085;28;20231;-57
2023/06/14 08:49:21;;;;;;;9.85;8.85;;;;;;;24.87;100.00;98052.91;5070169;28;20587;-57
2023/06/14 08:51:51;;;;;;;9.80;8.80;;;;;;;24.81;100.00;98059.03;5069911;28;20191;-57
2023/06/14 08:54:20;;;;;;;11.32;9.38;;;;;;;24.88;100.00;98065.13;5069956;28;20173;-57
2023/06/14 08:56:48;;;;;;;9.90;9.00;;;;;;;24.96;100.00;98062.25;5069928;28;20189;-57
2023/06/14 08:59:13;;;;;;;9.05;7.95;;;;;;;24.96;100.00;98046.38;5069961;28;20255;-57
2023/06/14 09:01:39;;;;;;;11.68;9.30;;;;;;;25.04;100.00;98040.91;5069924;28;20695;-57
2023/06/14 09:04:05;;;;;;;11.95;9.63;;;;;;;25.18;100.00;98062.88;5029792;28;20225;-57
2023/06/14 09:06:31;;;;;;;12.40;9.55;;;;;;;25.19;100.00;98062.66;5029815;28;20574;-57
2023/06/14 09:08:57;;;;;;;13.93;10.68;;;;;;;25.24;100.00;98068.19;5029777;28;20326;-57
2023/06/14 09:11:23;;;;;;;13.00;9.95;;;;;;;25.16;100.00;98044.56;5030142;28;20565;-57
2023/06/14 09:13:49;;;;;;;13.18;10.88;;;;;;;25.23;100.00;98063.88;5046733;28;20185;-57
2023/06/14 09:16:15;;;;;;;13.82;11.00;;;;;;;25.17;100.00;98042.69;5049770;28;20174;-57
2023/06/14 09:18:47;;;;;;;13.20;11.77;;;;;;;25.20;100.00;98043.09;5049614;28;20196;-57
2023/06/14 09:21:14;;;;;;;14.82;11.80;;;;;;;25.11;100.00;98030.28;5049710;28;20361;-57
2023/06/14 09:23:47;;;;;;;12.15;10.63;;;;;;;25.28;98.24;98056.19;5049547;28;20205;-58
2023/06/14 09:26:17;;;;;;;13.00;10.40;;;;;;;25.38;93.91;98050.47;5049622;28;20704;-57
2023/06/14 09:28:43;;;;;;;19.55;11.00;;;;;;;25.54;92.35;98045.53;5050976;28;20254;-57
2023/06/14 09:31:11;;;;;;;14.57;11.05;;;;;;;25.66;89.24;98043.84;5053618;28;20199;-57
2023/06/14 09:33:36;;;;;;;13.00;10.77;;;;;;;25.79;88.50;98041.19;5053640;28;20722;-57
2023/06/14 09:36:02;;;;;;;13.73;10.73;;;;;;;25.86;86.87;98049.09;5091786;28;20245;-58
2023/06/14 09:38:27;;;;;;;13.98;11.48;;;;;;;25.79;86.42;98027.94;5096465;28;20673;-58
2023/06/14 09:40:56;;;;;;;15.95;11.80;;;;;;;25.55;87.59;98052.44;5096213;28;20168;-57
2023/06/14 09:43:22;;;;;;;13.80;11.68;;;;;;;25.41;88.16;98019.06;5096041;28;20168;-57
2023/06/14 09:45:48;;;;;;;16.08;12.35;;;;;;;25.45;86.97;98041.47;5096100;28;20661;-57
2023/06/14 09:48:17;;;;;;;16.85;12.90;;;;;;;25.34;87.69;98038.63;5096039;28;20199;-57
2023/06/14 09:50:45;;;;;;;17.83;13.30;;;;;;;24.97;89.76;98024.19;5095933;28;20254;-57
2023/06/14 09:53:12;;;;;;;14.55;12.82;;;;;;;24.70;90.62;98021.75;5095953;28;20194;-57
2023/06/14 09:55:40;;;;;;;17.05;13.50;;;;;;;24.52;92.32;98011.75;5095940;28;20168;-57
2023/06/14 09:58:07;;;;;;;15.10;13.40;;;;;;;24.65;90.04;98027.66;5095939;28;20183;-57
2023/06/14 10:00:34;;;;;;;18.08;14.05;;;;;;;24.90;89.42;98028.66;5053036;28;20189;-57
2023/06/14 10:03:23;;;;;;;15.40;13.75;;;;;;;24.98;87.75;98007.28;5053177;28;20580;-57
2023/06/14 10:05:50;;;;;;;14.88;13.43;;;;;;;25.26;88.07;98023.75;5053183;28;20275;-57
2023/06/14 10:08:19;;;;;;;15.93;14.27;;;;;;;25.53;89.71;98016.56;5053011;28;20223;-57
2023/06/14 10:10:44;;;;;;;15.45;13.10;;;;;;;25.92;86.97;98000.56;5053004;28;20701;-57
2023/06/14 10:13:11;;;;;;;14.95;13.40;;;;;;;26.32;82.65;98025.84;5052863;28;20193;-57
2023/06/14 10:16:16;;;;;;;17.05;13.32;;;;;;;26.24;82.81;98021.59;5052888;28;20604;-57
2023/06/14 10:19:05;;;;;;;15.10;13.30;;;;;;;26.14;80.60;98026.56;5052937;28;20532;-57
2023/06/14 10:21:31;;;;;;;14.02;12.63;;;;;;;25.92;79.59;98027.06;5052844;28;20172;-57
2023/06/14 10:24:03;;;;;;;14.80;12.90;;;;;;;25.87;80.98;98025.03;5032632;28;20646;-57
2023/06/14 10:26:28;;;;;;;15.18;13.38;;;;;;;25.92;79.80;98025.25;5032841;28;20193;-57
2023/06/14 10:29:06;;;;;;;13.95;12.48;;;;;;;25.88;80.09;97999.31;5032850;28;20210;-57
2023/06/14 10:31:45;;;;;;;14.23;12.77;;;;;;;26.00;79.17;98006.44;5002938;28;20226;-57
2023/06/14 10:34:31;;;;;;;14.95;13.43;;;;;;;25.94;79.57;98020.53;5012941;28;20190;-57
2023/06/14 10:37:02;;;;;;;13.98;12.77;;;;;;;26.00;79.29;98014.38;5012586;28;20182;-57
2023/06/14 10:39:28;;;;;;;14.52;13.10;;;;;;;26.04;78.66;98012.13;5012131;28;20381;-57
2023/06/14 10:41:55;;;;;;;13.90;12.48;;;;;;;25.80;80.59;98008.34;5012203;28;20266;-57
2023/06/14 10:44:23;;;;;;;16.05;12.57;;;;;;;25.80;83.97;98013.66;5012710;28;20199;-57
2023/06/14 10:46:52;;;;;;;14.07;12.57;;;;;;;25.86;84.41;98012.81;5012622;28;20676;-57
2023/06/14 10:49:18;;;;;;;15.00;13.57;;;;;;;25.75;85.25;97986.94;5012506;28;20220;-57
2023/06/14 10:51:49;;;;;;;13.90;12.50;;;;;;;25.83;85.35;98007.09;5012533;28;20288;-57
2023/06/14 10:54:21;;;;;;;13.35;12.13;;;;;;;25.90;84.87;98013.22;5021375;28;20216;-57
2023/06/14 10:56:53;;;;;;;17.98;12.63;;;;;;;25.81;85.97;98009.97;5052184;28;20211;-57
2023/06/14 10:59:19;;;;;;;13.27;12.10;;;;;;;25.82;85.63;98011.59;5052091;28;20228;-57
2023/06/14 11:01:51;;;;;;;16.08;11.23;;;;;;;25.85;86.82;98008.53;5059823;28;20192;-57
2023/06/14 11:04:20;;;;;;;14.25;12.80;;;;;;;25.78;85.10;97986.50;5094379;28;20265;-57
2023/06/14 11:06:52;;;;;;;15.35;12.48;;;;;;;25.88;88.13;98009.91;5094598;28;20172;-57
2023/06/14 11:09:29;;;;;;;13.20;11.80;;;;;;;25.82;89.18;97990.38;5094500;28;20200;-57
2023/06/14 11:11:56;;;;;;;13.65;12.27;;;;;;;25.84;90.76;98000.78;5094245;28;20538;-57
2023/06/14 11:14:22;;;;;;;13.73;12.25;;;;;;;25.86;84.81;98007.50;5094431;28;20178;-57
2023/06/14 11:16:49;;;;;;;14.80;12.07;;;;;;;25.84;87.70;98004.22;5031744;28;20186;-57
2023/06/14 11:19:17;;;;;;;14.30;12.80;;;;;;;25.85;86.66;98011.19;5031863;28;20650;-57
2023/06/14 11:21:42;;;;;;;15.38;13.07;;;;;;;25.79;85.97;97997.94;5031733;28;20217;-57